createdAt,value
2024-03-03T00:01:20.940Z,8.85
2024-03-03T00:03:51.297Z,8.80
2024-03-03T00:06:21.685Z,8.86
2024-03-03T00:08:52.304Z,8.98
2024-03-03T00:11:22.892Z,8.52
2024-03-03T00:13:56.578Z,8.63
2024-03-03T00:16:27.891Z,8.55
2024-03-03T00:18:55.829Z,8.71
2024-03-03T00:21:26.606Z,8.26
2024-03-03T00:24:00.368Z,8.62
2024-03-03T00:26:27.689Z,8.17
2024-03-03T00:28:55.620Z,8.45
2024-03-03T00:31:26.318Z,8.33
2024-03-03T00:33:54.035Z,8.31
2024-03-03T00:36:21.694Z,8.10
2024-03-03T00:38:52.658Z,8.24
2024-03-03T00:41:20.050Z,8.35
2024-03-03T00:43:47.433Z,8.33
2024-03-03T00:46:14.872Z,8.38
2024-03-03T00:48:42.309Z,8.20
2024-03-03T00:51:09.796Z,8.34
2024-03-03T00:53:37.332Z,8.09
2024-03-03T00:56:09.013Z,8.30
2024-03-03T00:58:37.310Z,8.19
2024-03-03T01:01:04.719Z,8.03
2024-03-03T01:03:33.174Z,8.29
2024-03-03T01:06:00.673Z,8.43
2024-03-03T01:08:27.839Z,8.45
2024-03-03T01:10:54.953Z,7.98
2024-03-03T01:13:22.219Z,8.02
2024-03-03T01:15:49.530Z,8.20
2024-03-03T01:18:17.044Z,8.13
2024-03-03T01:20:44.222Z,8.17
2024-03-03T01:23:12.985Z,8.08
2024-03-03T01:25:40.291Z,7.85
2024-03-03T01:28:07.514Z,7.99
2024-03-03T01:30:34.668Z,8.10
2024-03-03T01:33:01.952Z,7.90
2024-03-03T01:35:29.011Z,8.25
2024-03-03T01:37:56.200Z,8.08
2024-03-03T01:40:23.724Z,7.96
2024-03-03T01:42:56.310Z,8.07
2024-03-03T01:45:24.807Z,8.29
2024-03-03T01:47:53.786Z,8.12
2024-03-03T01:50:22.708Z,8.30
2024-03-03T01:52:52.074Z,8.25
2024-03-03T01:55:21.960Z,8.06
2024-03-03T01:57:51.921Z,8.00
2024-03-03T02:00:22.321Z,7.83
2024-03-03T02:02:50.817Z,7.78
2024-03-03T02:05:19.931Z,7.97
2024-03-03T02:07:48.103Z,7.91
2024-03-03T02:10:17.226Z,8.05
2024-03-03T02:12:48.036Z,7.90
2024-03-03T02:15:18.232Z,7.90
2024-03-03T02:17:45.582Z,7.83
2024-03-03T02:20:12.999Z,8.03
2024-03-03T02:22:40.201Z,8.05
2024-03-03T02:25:10.157Z,7.88
2024-03-03T02:27:41.295Z,7.59
2024-03-03T02:30:12.739Z,7.79
2024-03-03T02:32:40.770Z,7.57
2024-03-03T02:35:11.726Z,7.58
2024-03-03T02:37:50.197Z,7.52
2024-03-03T02:40:25.510Z,8.04
2024-03-03T02:43:08.461Z,8.06
2024-03-03T02:45:43.762Z,7.62
2024-03-03T02:48:12.415Z,7.63
2024-03-03T02:50:46.007Z,7.62
2024-03-03T02:53:22.902Z,8.10
2024-03-03T02:55:52.842Z,7.92
2024-03-03T02:58:25.276Z,8.05
2024-03-03T03:00:57.380Z,7.95
2024-03-03T03:03:32.608Z,7.76
2024-03-03T03:06:02.065Z,8.20
2024-03-03T03:08:43.163Z,8.06
2024-03-03T03:11:23.904Z,8.23
2024-03-03T03:14:03.303Z,8.13
2024-03-03T03:16:44.369Z,7.71
2024-03-03T03:19:15.566Z,7.91
2024-03-03T03:21:46.072Z,7.80
2024-03-03T03:24:17.026Z,7.85
2024-03-03T03:26:53.027Z,7.82
2024-03-03T03:29:32.252Z,8.05
2024-03-03T03:32:06.067Z,7.90
2024-03-03T03:34:39.967Z,7.86
2024-03-03T03:37:14.981Z,8.07
2024-03-03T03:39:51.613Z,8.36
2024-03-03T03:42:39.668Z,7.83
2024-03-03T03:45:16.987Z,7.93
2024-03-03T03:47:49.170Z,8.27
2024-03-03T03:50:22.558Z,8.11
2024-03-03T03:52:52.446Z,8.28
2024-03-03T03:55:29.041Z,8.23
2024-03-03T03:58:00.881Z,8.01
2024-03-03T04:00:31.797Z,7.94
2024-03-03T04:03:02.381Z,8.07
2024-03-03T04:05:44.220Z,8.25
2024-03-03T04:08:41.238Z,8.00
2024-03-03T04:11:17.972Z,8.13
2024-03-03T04:13:50.266Z,7.91
2024-03-03T04:16:22.935Z,7.90
2024-03-03T04:18:54.040Z,8.06
2024-03-03T04:21:29.549Z,8.47
2024-03-03T04:24:05.665Z,8.12
2024-03-03T04:26:33.488Z,8.02
2024-03-03T04:29:03.368Z,8.16
2024-03-03T04:31:46.091Z,8.41
2024-03-03T04:34:18.307Z,8.39
2024-03-03T04:36:54.557Z,7.95
2024-03-03T04:39:22.828Z,7.98
2024-03-03T04:41:55.915Z,8.20
2024-03-03T04:44:33.929Z,8.21
2024-03-03T04:47:13.100Z,7.90
2024-03-03T04:49:48.737Z,7.98
2024-03-03T04:52:23.174Z,7.93
2024-03-03T04:55:00.989Z,7.96
2024-03-03T04:57:33.301Z,8.41
2024-03-03T05:00:11.671Z,8.15
2024-03-03T05:02:44.468Z,8.39
2024-03-03T05:05:29.264Z,7.96
2024-03-03T05:07:57.726Z,8.01
2024-03-03T05:10:27.952Z,8.10
2024-03-03T05:12:58.304Z,7.94
2024-03-03T05:15:33.132Z,8.19
2024-03-03T05:18:34.681Z,7.90
2024-03-03T05:21:07.679Z,8.36
2024-03-03T05:23:49.084Z,7.93
2024-03-03T05:26:26.440Z,8.45
2024-03-03T05:29:12.108Z,8.22
2024-03-03T05:31:46.510Z,8.07
2024-03-03T05:34:26.823Z,8.13
2024-03-03T05:37:00.489Z,8.22
2024-03-03T05:39:36.128Z,8.24
2024-03-03T05:42:15.147Z,8.22
2024-03-03T05:44:48.916Z,8.26
2024-03-03T05:47:20.099Z,8.64
2024-03-03T05:49:50.712Z,8.40
2024-03-03T05:52:24.960Z,8.40
2024-03-03T05:54:58.702Z,8.42
2024-03-03T05:57:33.216Z,8.47
2024-03-03T06:00:09.021Z,8.51
2024-03-03T06:02:43.839Z,8.53
2024-03-03T06:05:17.591Z,9.06
2024-03-03T06:07:50.466Z,8.83
2024-03-03T06:10:20.799Z,8.76
2024-03-03T06:13:24.545Z,9.07
2024-03-03T06:15:52.888Z,8.83
2024-03-03T06:18:32.579Z,8.84
2024-03-03T06:21:09.583Z,8.74
2024-03-03T06:23:57.576Z,9.11
2024-03-03T06:26:39.829Z,8.93
2024-03-03T06:29:25.543Z,8.95
2024-03-03T06:32:24.633Z,9.45
2024-03-03T06:35:08.229Z,9.47
2024-03-03T06:37:54.712Z,9.38
2024-03-03T06:40:29.455Z,9.37
2024-03-03T06:43:01.503Z,9.40
2024-03-03T06:45:52.585Z,9.44
2024-03-03T06:48:37.684Z,9.47
2024-03-03T06:51:14.314Z,9.53
2024-03-03T06:53:47.657Z,9.64
2024-03-03T06:56:36.020Z,9.99
2024-03-03T06:59:58.745Z,10.27
2024-03-03T07:03:02.445Z,10.06
2024-03-03T07:05:34.747Z,10.19
2024-03-03T07:08:34.620Z,10.20
2024-03-03T07:11:12.017Z,10.41
2024-03-03T07:13:43.516Z,10.75
2024-03-03T07:16:23.985Z,10.94
2024-03-03T07:19:04.025Z,10.95
2024-03-03T07:21:36.366Z,10.97
2024-03-03T07:24:18.363Z,10.84
2024-03-03T07:26:55.119Z,10.45
2024-03-03T07:29:28.387Z,10.58
2024-03-03T07:32:02.697Z,10.52
2024-03-03T07:34:38.594Z,10.60
2024-03-03T07:37:14.230Z,10.68
2024-03-03T07:39:50.909Z,10.62
2024-03-03T07:42:30.026Z,10.75
2024-03-03T07:45:05.702Z,11.00
2024-03-03T07:47:40.709Z,10.75
2024-03-03T07:50:19.141Z,10.85
2024-03-03T07:53:03.621Z,10.98
2024-03-03T07:55:37.802Z,11.34
2024-03-03T07:58:15.850Z,11.41
2024-03-03T08:01:15.248Z,11.42
2024-03-03T08:03:50.316Z,11.30
2024-03-03T08:06:28.884Z,11.52
2024-03-03T08:09:05.553Z,11.54
2024-03-03T08:11:36.537Z,11.80
2024-03-03T08:14:11.474Z,11.59
2024-03-03T08:16:44.810Z,11.69
2024-03-03T08:19:20.115Z,11.78
2024-03-03T08:22:02.376Z,11.98
2024-03-03T08:24:39.035Z,11.99
2024-03-03T08:27:20.815Z,12.19
2024-03-03T08:30:24.113Z,12.57
2024-03-03T08:33:06.702Z,12.31
2024-03-03T08:35:43.812Z,12.60
2024-03-03T08:41:10.077Z,12.50
2024-03-03T08:43:48.195Z,12.56
2024-03-03T08:46:34.114Z,12.53
2024-03-03T08:49:20.954Z,12.69
2024-03-03T08:52:00.304Z,12.71
2024-03-03T08:54:37.595Z,12.77
2024-03-03T08:57:15.517Z,12.41
2024-03-03T08:59:46.310Z,12.58
2024-03-03T09:02:13.514Z,12.99
2024-03-03T09:04:40.529Z,13.17
2024-03-03T09:07:09.300Z,13.09
2024-03-03T09:09:40.902Z,13.22
2024-03-03T09:12:09.918Z,13.25
2024-03-03T09:14:36.963Z,13.11
2024-03-03T09:17:03.942Z,13.09
2024-03-03T09:19:30.951Z,13.08
2024-03-03T09:21:57.819Z,13.19
2024-03-03T09:24:26.687Z,13.32
2024-03-03T09:26:53.707Z,13.23
2024-03-03T09:29:23.989Z,13.13
2024-03-03T09:31:55.763Z,13.06
2024-03-03T09:34:23.852Z,13.23
2024-03-03T09:36:51.139Z,13.53
2024-03-03T09:39:18.402Z,13.66
2024-03-03T09:41:45.444Z,13.84
2024-03-03T09:44:21.113Z,13.89
2024-03-03T09:46:49.739Z,13.95
2024-03-03T09:49:24.381Z,14.16
2024-03-03T09:51:51.490Z,14.29
2024-03-03T09:54:19.688Z,14.30
2024-03-03T09:56:49.039Z,14.33
2024-03-03T09:59:22.607Z,14.10
2024-03-03T10:01:57.132Z,14.14
2024-03-03T10:04:26.788Z,14.19
2024-03-03T10:06:56.454Z,14.34
2024-03-03T10:09:26.364Z,14.30
2024-03-03T10:11:56.426Z,14.43
2024-03-03T10:14:25.673Z,14.51
2024-03-03T10:16:52.723Z,14.37
2024-03-03T10:19:20.182Z,14.51
2024-03-03T10:21:48.813Z,14.57
2024-03-03T10:24:23.380Z,14.63
2024-03-03T10:26:54.716Z,14.51
2024-03-03T10:29:22.285Z,14.61
2024-03-03T10:31:49.666Z,14.76
2024-03-03T10:34:24.107Z,15.02
2024-03-03T10:37:08.157Z,15.22
2024-03-03T10:39:42.687Z,15.19
2024-03-03T10:42:11.467Z,15.18
2024-03-03T10:44:42.480Z,15.15
2024-03-03T10:47:20.514Z,15.12
2024-03-03T10:49:50.135Z,15.24
2024-03-03T10:52:18.999Z,15.29
2024-03-03T10:54:46.243Z,15.29
2024-03-03T10:57:17.658Z,15.31
2024-03-03T10:59:45.726Z,15.37
2024-03-03T11:02:15.644Z,15.51
2024-03-03T11:04:44.029Z,15.70
2024-03-03T11:07:12.253Z,15.82
2024-03-03T11:09:45.870Z,15.86
2024-03-03T11:12:18.543Z,16.00
2024-03-03T11:14:46.955Z,16.17
2024-03-03T11:18:51.769Z,16.36
2024-03-03T11:21:03.285Z,16.34
2024-03-03T11:23:42.369Z,16.29
2024-03-03T11:26:24.285Z,16.42
2024-03-03T11:28:57.747Z,16.50
2024-03-03T11:31:25.633Z,16.49
2024-03-03T11:33:54.402Z,16.48
2024-03-03T11:36:22.717Z,16.42
2024-03-03T11:38:49.774Z,16.55
2024-03-03T11:41:21.787Z,16.47
2024-03-03T11:43:52.245Z,16.54
2024-03-03T11:46:51.104Z,16.36
2024-03-03T11:49:19.612Z,16.48
2024-03-03T11:51:46.777Z,16.39
2024-03-03T11:54:14.942Z,16.42
2024-03-03T11:56:51.325Z,16.13
2024-03-03T11:59:18.555Z,16.22
2024-03-03T12:01:49.283Z,16.28
2024-03-03T12:04:17.112Z,16.41
2024-03-03T12:06:44.379Z,16.59
2024-03-03T12:09:12.182Z,16.60
2024-03-03T12:11:39.558Z,16.35
2024-03-03T12:14:08.332Z,16.41
2024-03-03T12:16:35.462Z,16.36
2024-03-03T12:19:02.757Z,16.37
2024-03-03T12:21:30.219Z,16.36
2024-03-03T12:23:57.926Z,16.49
2024-03-03T12:26:24.898Z,16.56
2024-03-03T12:28:52.165Z,16.59
2024-03-03T12:31:22.444Z,16.76
2024-03-03T12:33:50.420Z,16.70
2024-03-03T12:36:17.950Z,16.30
2024-03-03T12:38:47.604Z,16.11
2024-03-03T12:41:15.813Z,16.34
2024-03-03T12:43:42.698Z,16.34
2024-03-03T12:46:10.016Z,16.41
2024-03-03T12:48:36.793Z,16.19
2024-03-03T12:51:04.156Z,16.18
2024-03-03T12:53:39.215Z,16.24
2024-03-03T12:56:21.824Z,16.26
2024-03-03T12:58:49.781Z,16.23
2024-03-03T13:01:18.481Z,16.07
2024-03-03T13:03:48.028Z,16.08
2024-03-03T13:06:18.406Z,16.19
2024-03-03T13:08:46.856Z,16.09
2024-03-03T13:11:14.728Z,16.25
2024-03-03T13:13:42.064Z,16.24
2024-03-03T13:16:10.592Z,16.06
2024-03-03T13:18:38.012Z,16.04
2024-03-03T13:21:17.681Z,16.26
2024-03-03T13:23:44.555Z,16.48
2024-03-03T13:26:11.958Z,16.51
2024-03-03T13:28:39.730Z,16.60
2024-03-03T13:31:07.780Z,16.57
2024-03-03T13:33:40.174Z,16.77
2024-03-03T13:36:11.221Z,16.80
2024-03-03T13:38:38.709Z,16.79
2024-03-03T13:41:06.084Z,16.84
2024-03-03T13:43:36.215Z,16.87
2024-03-03T13:46:03.286Z,16.80
2024-03-03T13:48:30.341Z,16.70
2024-03-03T13:50:59.384Z,16.75
2024-03-03T13:53:27.498Z,16.77
2024-03-03T13:55:54.541Z,16.80
2024-03-03T13:58:21.694Z,16.68
2024-03-03T14:00:49.376Z,16.61
2024-03-03T14:03:16.328Z,16.50
2024-03-03T14:05:43.920Z,16.51
2024-03-03T14:08:13.994Z,16.45
2024-03-03T14:10:40.987Z,16.50
2024-03-03T14:13:07.967Z,16.50
2024-03-03T14:15:35.024Z,16.49
2024-03-03T14:18:02.949Z,16.39
2024-03-03T14:20:30.141Z,16.24
2024-03-03T14:22:57.500Z,16.23
2024-03-03T14:25:26.366Z,16.28
2024-03-03T14:28:01.536Z,16.25
2024-03-03T14:30:36.640Z,16.20
2024-03-03T14:33:05.977Z,16.12
2024-03-03T14:35:33.391Z,16.02
2024-03-03T14:38:00.172Z,15.87
2024-03-03T14:40:27.013Z,15.86
2024-03-03T14:42:54.740Z,15.70
2024-03-03T14:45:22.256Z,15.72
2024-03-03T14:47:49.491Z,15.69
2024-03-03T14:50:17.091Z,15.63
2024-03-03T14:52:43.886Z,15.51
2024-03-03T14:55:11.669Z,15.51
2024-03-03T14:57:38.853Z,15.57
2024-03-03T15:00:07.052Z,15.49
2024-03-03T15:02:36.729Z,15.40
2024-03-03T15:05:07.487Z,15.40
2024-03-03T15:07:34.696Z,15.42
2024-03-03T15:10:01.750Z,15.31
2024-03-03T15:12:28.648Z,15.34
2024-03-03T15:14:55.729Z,15.20
2024-03-03T15:17:22.698Z,15.26
2024-03-03T15:19:49.744Z,15.25
2024-03-03T15:22:17.055Z,15.26
2024-03-03T15:24:46.321Z,15.24
2024-03-03T15:27:13.670Z,15.19
2024-03-03T15:29:43.543Z,15.12
2024-03-03T15:32:11.090Z,15.04
2024-03-03T15:34:37.980Z,14.97
2024-03-03T15:37:05.191Z,15.00
2024-03-03T15:39:34.411Z,14.84
2024-03-03T15:42:03.206Z,14.80
2024-03-03T15:44:30.813Z,14.71
2024-03-03T15:46:57.614Z,14.71
2024-03-03T15:49:24.646Z,14.64
2024-03-03T15:51:51.711Z,14.58
2024-03-03T15:54:18.690Z,14.55
2024-03-03T15:56:45.969Z,14.53
2024-03-03T15:59:12.917Z,14.34
2024-03-03T16:01:40.847Z,14.39
2024-03-03T16:04:07.818Z,14.28
2024-03-03T16:06:35.243Z,14.17
2024-03-03T16:09:05.009Z,14.12
2024-03-03T16:11:32.505Z,13.99
2024-03-03T16:13:59.668Z,13.82
2024-03-03T16:16:28.293Z,13.77
2024-03-03T16:19:02.013Z,13.67
2024-03-03T16:21:54.488Z,13.56
2024-03-03T16:24:24.356Z,13.41
2024-03-03T16:26:51.356Z,13.33
2024-03-03T16:29:18.287Z,13.26
2024-03-03T16:31:45.684Z,13.17
2024-03-03T16:34:12.654Z,13.12
2024-03-03T16:36:39.767Z,12.99
2024-03-03T16:39:08.364Z,12.97
2024-03-03T16:41:35.874Z,12.89
2024-03-03T16:44:04.350Z,12.83
2024-03-03T16:46:31.802Z,12.74
2024-03-03T16:48:59.433Z,12.67
2024-03-03T16:51:26.437Z,12.58
2024-03-03T16:53:53.936Z,12.54
2024-03-03T16:56:21.794Z,12.52
2024-03-03T16:58:48.860Z,12.46
2024-03-03T17:01:15.985Z,12.39
2024-03-03T17:03:45.607Z,12.36
2024-03-03T17:06:12.431Z,12.27
2024-03-03T17:08:39.619Z,12.28
2024-03-03T17:11:08.247Z,12.18
2024-03-03T17:13:35.496Z,12.20
2024-03-03T17:16:02.494Z,12.20
2024-03-03T17:18:30.502Z,12.14
2024-03-03T17:20:57.374Z,12.17
2024-03-03T17:23:27.299Z,12.12
2024-03-03T17:25:54.333Z,12.09
2024-03-03T17:28:21.347Z,12.10
2024-03-03T17:30:48.416Z,12.08
2024-03-03T17:33:15.530Z,12.13
2024-03-03T17:35:42.628Z,12.13
2024-03-03T17:38:09.548Z,12.16
2024-03-03T17:40:36.756Z,12.20
2024-03-03T17:43:04.131Z,12.19
2024-03-03T17:45:31.307Z,12.16
2024-03-03T17:47:58.327Z,12.13
2024-03-03T17:50:25.333Z,12.04
2024-03-03T17:52:52.231Z,11.99
2024-03-03T17:55:19.160Z,11.93
2024-03-03T17:57:50.749Z,11.82
2024-03-03T18:00:18.893Z,11.65
2024-03-03T18:02:46.321Z,11.49
2024-03-03T18:05:13.303Z,11.44
2024-03-03T18:07:41.065Z,11.41
2024-03-03T18:10:08.948Z,11.29
2024-03-03T18:12:36.205Z,11.17
2024-03-03T18:15:05.325Z,11.16
2024-03-03T18:17:34.805Z,11.08
2024-03-03T18:20:01.903Z,11.08
2024-03-03T18:22:28.892Z,10.99
2024-03-03T18:24:56.070Z,10.92
2024-03-03T18:27:24.104Z,10.75
2024-03-03T18:29:51.906Z,10.77
2024-03-03T18:32:19.433Z,10.67
2024-03-03T18:34:49.165Z,10.62
2024-03-03T18:37:16.013Z,10.58
2024-03-03T18:39:42.946Z,10.49
2024-03-03T18:42:12.959Z,10.48
2024-03-03T18:44:41.277Z,10.38
2024-03-03T18:47:09.180Z,10.33
2024-03-03T18:50:26.030Z,10.28
2024-03-03T18:52:53.834Z,10.19
2024-03-03T18:55:20.901Z,10.10
2024-03-03T18:57:49.449Z,10.06
2024-03-03T19:00:19.567Z,10.05
2024-03-03T19:02:46.480Z,9.98
2024-03-03T19:05:13.715Z,9.94
2024-03-03T19:07:40.852Z,9.89
2024-03-03T19:10:08.800Z,9.76
2024-03-03T19:12:35.778Z,9.72
2024-03-03T19:15:03.179Z,9.66
2024-03-03T19:17:30.022Z,9.60
2024-03-03T19:19:58.313Z,9.56
2024-03-03T19:22:25.197Z,9.44
2024-03-03T19:24:52.149Z,9.41
2024-03-03T19:27:19.094Z,9.30
2024-03-03T19:29:45.972Z,9.30
2024-03-03T19:32:12.845Z,9.30
2024-03-03T19:34:41.501Z,9.26
2024-03-03T19:37:10.043Z,9.14
2024-03-03T19:39:37.094Z,9.13
2024-03-03T19:42:05.489Z,9.01
2024-03-03T19:44:32.386Z,8.88
2024-03-03T19:47:25.725Z,8.77
2024-03-03T19:50:03.128Z,8.72
2024-03-03T19:52:45.745Z,8.67
2024-03-03T19:55:12.879Z,8.61
2024-03-03T19:57:39.852Z,8.62
2024-03-03T20:00:15.792Z,8.53
2024-03-03T20:02:44.084Z,8.51
2024-03-03T20:05:11.144Z,8.37
2024-03-03T20:07:38.498Z,8.43
2024-03-03T20:10:08.091Z,8.41
2024-03-03T20:12:34.995Z,8.27
2024-03-03T20:15:03.211Z,8.29
2024-03-03T20:17:30.519Z,8.20
2024-03-03T20:19:58.021Z,8.07
2024-03-03T20:22:26.944Z,8.14
2024-03-03T20:24:54.034Z,8.08
2024-03-03T20:27:22.704Z,8.04
2024-03-03T20:29:49.784Z,7.97
2024-03-03T20:32:16.710Z,7.85
2024-03-03T20:34:43.655Z,7.80
2024-03-03T20:37:10.773Z,7.73
2024-03-03T20:39:37.781Z,7.67
2024-03-03T20:42:07.139Z,7.64
2024-03-03T20:44:34.084Z,7.63
2024-03-03T20:47:01.037Z,7.61
2024-03-03T20:49:28.086Z,7.51
2024-03-03T20:51:55.062Z,7.39
2024-03-03T20:54:22.370Z,7.42
2024-03-03T20:56:49.270Z,7.34
2024-03-03T20:59:16.282Z,7.21
2024-03-03T21:01:43.350Z,7.22
2024-03-03T21:04:31.615Z,7.11
2024-03-03T21:07:05.346Z,7.11
2024-03-03T21:09:58.065Z,7.09
2024-03-03T21:12:25.166Z,6.87
2024-03-03T21:14:52.094Z,6.84
2024-03-03T21:17:19.138Z,6.83
2024-03-03T21:19:46.503Z,6.73
2024-03-03T21:22:14.590Z,6.80
2024-03-03T21:24:41.499Z,6.79
2024-03-03T21:27:09.029Z,6.72
2024-03-03T21:29:36.998Z,6.72
2024-03-03T21:32:04.035Z,6.59
2024-03-03T21:34:31.134Z,6.59
2024-03-03T21:36:58.570Z,6.56
2024-03-03T21:39:26.213Z,6.52
2024-03-03T21:41:53.556Z,6.46
2024-03-03T21:44:20.704Z,6.38
2024-03-03T21:46:47.748Z,6.31
2024-03-03T21:49:15.298Z,6.28
2024-03-03T21:51:42.432Z,6.24
2024-03-03T21:54:09.324Z,6.23
2024-03-03T21:56:36.768Z,6.24
2024-03-03T21:59:03.705Z,6.10
2024-03-03T22:01:30.609Z,6.04
2024-03-03T22:03:57.745Z,5.99
2024-03-03T22:06:24.720Z,5.87
2024-03-03T22:08:56.820Z,5.92
2024-03-03T22:11:25.195Z,5.89
2024-03-03T22:13:52.119Z,5.86
2024-03-03T22:16:19.049Z,5.78
2024-03-03T22:18:47.196Z,5.83
2024-03-03T22:21:14.344Z,5.77
2024-03-03T22:23:41.303Z,5.71
2024-03-03T22:26:08.413Z,5.75
2024-03-03T22:28:35.348Z,5.70
2024-03-03T22:31:02.451Z,5.65
2024-03-03T22:33:29.639Z,5.57
2024-03-03T22:35:56.570Z,5.52
2024-03-03T22:38:23.784Z,5.44
2024-03-03T22:40:50.882Z,5.48
2024-03-03T22:43:18.390Z,5.37
2024-03-03T22:45:45.387Z,5.38
2024-03-03T22:48:12.457Z,5.42
2024-03-03T22:50:41.305Z,5.40
2024-03-03T22:53:10.329Z,5.44
2024-03-03T22:55:37.715Z,5.39
2024-03-03T22:58:04.942Z,5.37
2024-03-03T23:00:33.769Z,5.28
2024-03-03T23:03:00.653Z,5.28
2024-03-03T23:05:27.773Z,5.22
2024-03-03T23:07:54.786Z,5.15
2024-03-03T23:10:22.190Z,5.10
2024-03-03T23:12:50.388Z,4.92
2024-03-03T23:15:17.344Z,4.91
2024-03-03T23:17:44.424Z,4.87
2024-03-03T23:20:11.859Z,4.84
2024-03-03T23:22:39.092Z,4.81
2024-03-03T23:25:10.491Z,4.68
2024-03-03T23:27:38.511Z,4.71
2024-03-03T23:30:16.137Z,4.58
2024-03-03T23:36:22.294Z,4.68
2024-03-03T23:38:50.660Z,4.65
2024-03-03T23:41:17.616Z,4.63
2024-03-03T23:43:44.646Z,4.55
2024-03-03T23:46:12.434Z,4.55
2024-03-03T23:48:39.612Z,4.50
2024-03-03T23:51:07.614Z,4.53
2024-03-03T23:53:35.426Z,4.47
2024-03-03T23:56:04.847Z,4.40
2024-03-03T23:58:31.993Z,4.37
